sensor_id;sensor_type;location;lat;lon;timestamp;P1;durP1;ratioP1;P2;durP2;ratioP2
17564;SDS011;62994;52.126;5.596;2022-11-20T00:01:16;5.50;;;5.10;;
17564;SDS011;62994;52.126;5.596;2022-11-20T00:03:44;4.83;;;4.43;;
17564;SDS011;62994;52.126;5.596;2022-11-20T00:06:12;5.70;;;5.20;;
17564;SDS011;62994;52.126;5.596;2022-11-20T00:08:40;5.30;;;4.27;;
17564;SDS011;62994;52.126;5.596;2022-11-20T00:11:12;8.97;;;5.07;;
17564;SDS011;62994;52.126;5.596;2022-11-20T00:13:42;4.80;;;4.33;;
17564;SDS011;62994;52.126;5.596;2022-11-20T00:16:15;4.70;;;4.40;;
17564;SDS011;62994;52.126;5.596;2022-11-20T00:18:45;4.70;;;4.23;;
17564;SDS011;62994;52.126;5.596;2022-11-20T00:21:13;4.90;;;4.50;;
17564;SDS011;62994;52.126;5.596;2022-11-20T00:23:41;6.13;;;4.47;;
17564;SDS011;62994;52.126;5.596;2022-11-20T00:26:12;4.77;;;4.37;;
17564;SDS011;62994;52.126;5.596;2022-11-20T00:28:50;4.57;;;4.17;;
17564;SDS011;62994;52.126;5.596;2022-11-20T00:31:18;4.50;;;4.20;;
17564;SDS011;62994;52.126;5.596;2022-11-20T00:33:46;5.03;;;4.50;;
17564;SDS011;62994;52.126;5.596;2022-11-20T00:36:14;4.57;;;4.17;;
17564;SDS011;62994;52.126;5.596;2022-11-20T00:38:42;4.37;;;3.97;;
17564;SDS011;62994;52.126;5.596;2022-11-20T00:41:14;4.43;;;4.07;;
17564;SDS011;62994;52.126;5.596;2022-11-20T00:43:42;3.70;;;3.50;;
17564;SDS011;62994;52.126;5.596;2022-11-20T00:46:12;6.73;;;4.60;;
17564;SDS011;62994;52.126;5.596;2022-11-20T00:48:40;5.43;;;4.17;;
17564;SDS011;62994;52.126;5.596;2022-11-20T00:51:07;5.00;;;4.60;;
17564;SDS011;62994;52.126;5.596;2022-11-20T00:53:34;6.13;;;4.10;;
17564;SDS011;62994;52.126;5.596;2022-11-20T00:56:02;4.03;;;3.70;;
17564;SDS011;62994;52.126;5.596;2022-11-20T00:58:37;4.77;;;4.37;;
17564;SDS011;62994;52.126;5.596;2022-11-20T01:01:07;4.27;;;3.87;;
17564;SDS011;62994;52.126;5.596;2022-11-20T01:03:37;4.63;;;3.90;;
17564;SDS011;62994;52.126;5.596;2022-11-20T01:06:06;5.03;;;4.17;;
17564;SDS011;62994;52.126;5.596;2022-11-20T01:08:35;4.07;;;3.67;;
17564;SDS011;62994;52.126;5.596;2022-11-20T01:11:04;3.97;;;3.63;;
17564;SDS011;62994;52.126;5.596;2022-11-20T01:13:33;3.80;;;3.50;;
17564;SDS011;62994;52.126;5.596;2022-11-20T01:16:06;6.43;;;4.37;;
17564;SDS011;62994;52.126;5.596;2022-11-20T01:18:35;4.43;;;4.07;;
17564;SDS011;62994;52.126;5.596;2022-11-20T01:21:04;4.37;;;3.63;;
17564;SDS011;62994;52.126;5.596;2022-11-20T01:23:32;4.57;;;4.17;;
17564;SDS011;62994;52.126;5.596;2022-11-20T01:26:01;4.47;;;4.07;;
17564;SDS011;62994;52.126;5.596;2022-11-20T01:28:28;3.97;;;3.67;;
17564;SDS011;62994;52.126;5.596;2022-11-20T01:30:58;4.30;;;3.90;;
17564;SDS011;62994;52.126;5.596;2022-11-20T01:33:27;4.00;;;3.60;;
17564;SDS011;62994;52.126;5.596;2022-11-20T01:36:02;3.97;;;3.67;;
17564;SDS011;62994;52.126;5.596;2022-11-20T01:38:30;4.40;;;4.00;;
17564;SDS011;62994;52.126;5.596;2022-11-20T01:40:57;4.23;;;3.70;;
17564;SDS011;62994;52.126;5.596;2022-11-20T01:43:24;3.97;;;3.67;;
17564;SDS011;62994;52.126;5.596;2022-11-20T01:46:02;4.47;;;3.73;;
17564;SDS011;62994;52.126;5.596;2022-11-20T01:48:42;3.90;;;3.60;;
17564;SDS011;62994;52.126;5.596;2022-11-20T01:51:20;4.17;;;3.60;;
17564;SDS011;62994;52.126;5.596;2022-11-20T01:53:53;4.27;;;3.97;;
17564;SDS011;62994;52.126;5.596;2022-11-20T01:56:23;3.73;;;3.43;;
17564;SDS011;62994;52.126;5.596;2022-11-20T01:58:54;3.60;;;3.30;;
17564;SDS011;62994;52.126;5.596;2022-11-20T02:01:24;4.00;;;3.70;;
17564;SDS011;62994;52.126;5.596;2022-11-20T02:03:51;5.07;;;3.90;;
17564;SDS011;62994;52.126;5.596;2022-11-20T02:06:22;4.73;;;3.83;;
17564;SDS011;62994;52.126;5.596;2022-11-20T02:08:53;4.00;;;3.70;;
17564;SDS011;62994;52.126;5.596;2022-11-20T02:11:21;3.80;;;3.50;;
17564;SDS011;62994;52.126;5.596;2022-11-20T02:13:48;3.80;;;3.50;;
17564;SDS011;62994;52.126;5.596;2022-11-20T02:16:23;4.23;;;3.57;;
17564;SDS011;62994;52.126;5.596;2022-11-20T02:18:53;3.60;;;3.30;;
17564;SDS011;62994;52.126;5.596;2022-11-20T02:21:28;3.80;;;3.50;;
17564;SDS011;62994;52.126;5.596;2022-11-20T02:24:06;3.37;;;3.07;;
17564;SDS011;62994;52.126;5.596;2022-11-20T02:26:38;3.97;;;3.67;;
17564;SDS011;62994;52.126;5.596;2022-11-20T02:29:13;3.70;;;3.37;;
17564;SDS011;62994;52.126;5.596;2022-11-20T02:31:47;4.93;;;3.93;;
17564;SDS011;62994;52.126;5.596;2022-11-20T02:34:14;3.77;;;3.47;;
17564;SDS011;62994;52.126;5.596;2022-11-20T02:36:41;3.83;;;3.27;;
17564;SDS011;62994;52.126;5.596;2022-11-20T02:39:11;3.40;;;3.10;;
17564;SDS011;62994;52.126;5.596;2022-11-20T02:41:42;3.57;;;3.27;;
17564;SDS011;62994;52.126;5.596;2022-11-20T02:44:09;3.70;;;3.40;;
17564;SDS011;62994;52.126;5.596;2022-11-20T02:46:36;3.77;;;3.40;;
17564;SDS011;62994;52.126;5.596;2022-11-20T02:49:03;3.30;;;3.10;;
17564;SDS011;62994;52.126;5.596;2022-11-20T02:51:31;3.57;;;3.27;;
17564;SDS011;62994;52.126;5.596;2022-11-20T02:53:58;3.70;;;3.50;;
17564;SDS011;62994;52.126;5.596;2022-11-20T02:56:32;3.50;;;3.20;;
17564;SDS011;62994;52.126;5.596;2022-11-20T02:58:59;3.50;;;3.20;;
17564;SDS011;62994;52.126;5.596;2022-11-20T03:01:29;3.10;;;2.90;;
17564;SDS011;62994;52.126;5.596;2022-11-20T03:03:56;3.23;;;2.97;;
17564;SDS011;62994;52.126;5.596;2022-11-20T03:06:23;3.13;;;2.93;;
17564;SDS011;62994;52.126;5.596;2022-11-20T03:08:50;3.37;;;3.07;;
17564;SDS011;62994;52.126;5.596;2022-11-20T03:11:17;3.63;;;3.33;;
17564;SDS011;62994;52.126;5.596;2022-11-20T03:13:45;3.33;;;3.03;;
17564;SDS011;62994;52.126;5.596;2022-11-20T03:16:13;3.27;;;3.00;;
17564;SDS011;62994;52.126;5.596;2022-11-20T03:18:42;3.40;;;3.10;;
17564;SDS011;62994;52.126;5.596;2022-11-20T03:21:09;3.20;;;3.00;;
17564;SDS011;62994;52.126;5.596;2022-11-20T03:23:41;3.80;;;3.50;;
17564;SDS011;62994;52.126;5.596;2022-11-20T03:26:12;3.30;;;3.00;;
17564;SDS011;62994;52.126;5.596;2022-11-20T03:28:41;3.07;;;2.80;;
17564;SDS011;62994;52.126;5.596;2022-11-20T03:31:10;3.50;;;2.93;;
17564;SDS011;62994;52.126;5.596;2022-11-20T03:33:39;3.60;;;3.30;;
17564;SDS011;62994;52.126;5.596;2022-11-20T03:36:07;2.77;;;2.57;;
17564;SDS011;62994;52.126;5.596;2022-11-20T03:38:36;3.13;;;2.80;;
17564;SDS011;62994;52.126;5.596;2022-11-20T03:41:03;3.60;;;2.70;;
17564;SDS011;62994;52.126;5.596;2022-11-20T03:43:35;2.77;;;2.57;;
17564;SDS011;62994;52.126;5.596;2022-11-20T03:46:02;3.10;;;2.90;;
17564;SDS011;62994;52.126;5.596;2022-11-20T03:48:31;3.20;;;2.90;;
17564;SDS011;62994;52.126;5.596;2022-11-20T03:51:08;3.00;;;2.70;;
17564;SDS011;62994;52.126;5.596;2022-11-20T03:53:44;2.90;;;2.70;;
17564;SDS011;62994;52.126;5.596;2022-11-20T03:56:12;4.20;;;3.90;;
17564;SDS011;62994;52.126;5.596;2022-11-20T03:58:41;3.57;;;3.37;;
17564;SDS011;62994;52.126;5.596;2022-11-20T04:01:09;3.63;;;3.37;;
17564;SDS011;62994;52.126;5.596;2022-11-20T04:03:42;3.50;;;3.30;;
17564;SDS011;62994;52.126;5.596;2022-11-20T04:06:12;3.30;;;3.10;;
17564;SDS011;62994;52.126;5.596;2022-11-20T04:08:46;3.40;;;3.10;;
17564;SDS011;62994;52.126;5.596;2022-11-20T04:11:14;4.33;;;3.00;;
17564;SDS011;62994;52.126;5.596;2022-11-20T04:13:45;2.83;;;2.63;;
17564;SDS011;62994;52.126;5.596;2022-11-20T04:16:13;3.13;;;2.93;;
17564;SDS011;62994;52.126;5.596;2022-11-20T04:18:42;3.00;;;2.80;;
17564;SDS011;62994;52.126;5.596;2022-11-20T04:21:22;2.80;;;2.60;;
17564;SDS011;62994;52.126;5.596;2022-11-20T04:23:50;3.17;;;2.97;;
17564;SDS011;62994;52.126;5.596;2022-11-20T04:26:20;3.00;;;2.77;;
17564;SDS011;62994;52.126;5.596;2022-11-20T04:28:57;2.67;;;2.47;;
17564;SDS011;62994;52.126;5.596;2022-11-20T04:31:28;3.40;;;3.10;;
17564;SDS011;62994;52.126;5.596;2022-11-20T04:34:04;3.37;;;3.17;;
17564;SDS011;62994;52.126;5.596;2022-11-20T04:36:39;3.13;;;2.93;;
17564;SDS011;62994;52.126;5.596;2022-11-20T04:39:11;3.77;;;3.57;;
17564;SDS011;62994;52.126;5.596;2022-11-20T04:41:42;3.37;;;3.17;;
17564;SDS011;62994;52.126;5.596;2022-11-20T04:44:09;3.33;;;3.10;;
17564;SDS011;62994;52.126;5.596;2022-11-20T04:46:37;3.30;;;3.10;;
17564;SDS011;62994;52.126;5.596;2022-11-20T04:49:08;3.40;;;3.20;;
17564;SDS011;62994;52.126;5.596;2022-11-20T04:51:36;3.13;;;2.93;;
17564;SDS011;62994;52.126;5.596;2022-11-20T04:54:04;2.87;;;2.67;;
17564;SDS011;62994;52.126;5.596;2022-11-20T04:56:31;3.87;;;3.57;;
17564;SDS011;62994;52.126;5.596;2022-11-20T04:59:04;3.27;;;3.07;;
17564;SDS011;62994;52.126;5.596;2022-11-20T05:01:32;3.40;;;3.20;;
17564;SDS011;62994;52.126;5.596;2022-11-20T05:04:09;3.30;;;3.00;;
17564;SDS011;62994;52.126;5.596;2022-11-20T05:06:36;3.73;;;3.50;;
17564;SDS011;62994;52.126;5.596;2022-11-20T05:09:05;3.17;;;2.97;;
17564;SDS011;62994;52.126;5.596;2022-11-20T05:11:33;3.17;;;2.97;;
17564;SDS011;62994;52.126;5.596;2022-11-20T05:14:04;3.10;;;2.90;;
17564;SDS011;62994;52.126;5.596;2022-11-20T05:16:37;2.93;;;2.73;;
17564;SDS011;62994;52.126;5.596;2022-11-20T05:19:08;3.00;;;2.80;;
17564;SDS011;62994;52.126;5.596;2022-11-20T05:21:39;3.13;;;2.93;;
17564;SDS011;62994;52.126;5.596;2022-11-20T05:24:07;3.47;;;3.27;;
17564;SDS011;62994;52.126;5.596;2022-11-20T05:26:42;3.50;;;3.30;;
17564;SDS011;62994;52.126;5.596;2022-11-20T05:29:10;3.13;;;2.93;;
17564;SDS011;62994;52.126;5.596;2022-11-20T05:31:38;3.20;;;3.00;;
17564;SDS011;62994;52.126;5.596;2022-11-20T05:34:06;3.00;;;2.80;;
17564;SDS011;62994;52.126;5.596;2022-11-20T05:36:37;3.20;;;3.00;;
17564;SDS011;62994;52.126;5.596;2022-11-20T05:39:05;3.17;;;2.97;;
17564;SDS011;62994;52.126;5.596;2022-11-20T05:41:37;3.40;;;3.20;;
17564;SDS011;62994;52.126;5.596;2022-11-20T05:44:04;3.67;;;3.37;;
17564;SDS011;62994;52.126;5.596;2022-11-20T05:46:32;3.43;;;3.23;;
17564;SDS011;62994;52.126;5.596;2022-11-20T05:48:59;3.33;;;3.13;;
17564;SDS011;62994;52.126;5.596;2022-11-20T05:51:28;2.83;;;2.63;;
17564;SDS011;62994;52.126;5.596;2022-11-20T05:53:58;2.80;;;2.70;;
17564;SDS011;62994;52.126;5.596;2022-11-20T05:56:25;3.47;;;3.27;;
17564;SDS011;62994;52.126;5.596;2022-11-20T05:58:55;3.07;;;2.87;;
17564;SDS011;62994;52.126;5.596;2022-11-20T06:01:25;3.20;;;3.00;;
17564;SDS011;62994;52.126;5.596;2022-11-20T06:03:56;3.17;;;2.97;;
17564;SDS011;62994;52.126;5.596;2022-11-20T06:06:35;2.77;;;2.57;;
17564;SDS011;62994;52.126;5.596;2022-11-20T06:09:07;3.50;;;3.20;;
17564;SDS011;62994;52.126;5.596;2022-11-20T06:11:34;4.40;;;2.97;;
17564;SDS011;62994;52.126;5.596;2022-11-20T06:14:01;3.10;;;2.90;;
17564;SDS011;62994;52.126;5.596;2022-11-20T06:16:30;2.93;;;2.73;;
17564;SDS011;62994;52.126;5.596;2022-11-20T06:19:02;3.30;;;3.10;;
17564;SDS011;62994;52.126;5.596;2022-11-20T06:21:33;2.80;;;2.60;;
17564;SDS011;62994;52.126;5.596;2022-11-20T06:24:00;3.30;;;3.10;;
17564;SDS011;62994;52.126;5.596;2022-11-20T06:26:27;2.73;;;2.63;;
17564;SDS011;62994;52.126;5.596;2022-11-20T06:28:59;2.70;;;2.53;;
17564;SDS011;62994;52.126;5.596;2022-11-20T06:31:26;2.90;;;2.70;;
17564;SDS011;62994;52.126;5.596;2022-11-20T06:33:57;2.80;;;2.60;;
17564;SDS011;62994;52.126;5.596;2022-11-20T06:36:34;2.73;;;2.53;;
17564;SDS011;62994;52.126;5.596;2022-11-20T06:39:02;3.30;;;3.10;;
17564;SDS011;62994;52.126;5.596;2022-11-20T06:43:39;2.83;;;2.67;;
17564;SDS011;62994;52.126;5.596;2022-11-20T06:44:36;3.37;;;3.17;;
17564;SDS011;62994;52.126;5.596;2022-11-20T06:47:06;3.00;;;2.80;;
17564;SDS011;62994;52.126;5.596;2022-11-20T06:49:38;2.83;;;2.63;;
17564;SDS011;62994;52.126;5.596;2022-11-20T06:52:23;2.80;;;2.70;;
17564;SDS011;62994;52.126;5.596;2022-11-20T06:55:29;2.93;;;2.73;;
17564;SDS011;62994;52.126;5.596;2022-11-20T06:57:56;3.00;;;2.80;;
17564;SDS011;62994;52.126;5.596;2022-11-20T07:00:23;2.90;;;2.70;;
17564;SDS011;62994;52.126;5.596;2022-11-20T07:02:50;3.00;;;2.80;;
17564;SDS011;62994;52.126;5.596;2022-11-20T07:05:20;2.70;;;2.50;;
17564;SDS011;62994;52.126;5.596;2022-11-20T07:07:49;2.93;;;2.73;;
17564;SDS011;62994;52.126;5.596;2022-11-20T07:13:43;3.00;;;2.80;;
17564;SDS011;62994;52.126;5.596;2022-11-20T07:16:10;2.87;;;2.67;;
17564;SDS011;62994;52.126;5.596;2022-11-20T07:18:37;2.70;;;2.50;;
17564;SDS011;62994;52.126;5.596;2022-11-20T07:21:06;2.73;;;2.53;;
17564;SDS011;62994;52.126;5.596;2022-11-20T07:23:37;2.70;;;2.60;;
17564;SDS011;62994;52.126;5.596;2022-11-20T07:26:05;2.90;;;2.73;;
17564;SDS011;62994;52.126;5.596;2022-11-20T07:28:32;2.83;;;2.63;;
17564;SDS011;62994;52.126;5.596;2022-11-20T07:31:00;3.20;;;3.00;;
17564;SDS011;62994;52.126;5.596;2022-11-20T07:33:30;3.20;;;3.00;;
17564;SDS011;62994;52.126;5.596;2022-11-20T07:36:00;2.93;;;2.73;;
17564;SDS011;62994;52.126;5.596;2022-11-20T07:38:27;2.77;;;2.57;;
17564;SDS011;62994;52.126;5.596;2022-11-20T07:41:01;2.90;;;2.70;;
17564;SDS011;62994;52.126;5.596;2022-11-20T07:43:37;3.03;;;2.83;;
17564;SDS011;62994;52.126;5.596;2022-11-20T07:46:04;2.77;;;2.57;;
17564;SDS011;62994;52.126;5.596;2022-11-20T07:48:51;3.30;;;3.10;;
17564;SDS011;62994;52.126;5.596;2022-11-20T07:51:35;2.57;;;2.43;;
17564;SDS011;62994;52.126;5.596;2022-11-20T07:54:25;2.83;;;2.63;;
17564;SDS011;62994;52.126;5.596;2022-11-20T07:57:02;3.13;;;2.93;;
17564;SDS011;62994;52.126;5.596;2022-11-20T07:59:31;3.00;;;2.80;;
17564;SDS011;62994;52.126;5.596;2022-11-20T08:02:09;2.60;;;2.50;;
17564;SDS011;62994;52.126;5.596;2022-11-20T08:04:39;2.37;;;2.17;;
17564;SDS011;62994;52.126;5.596;2022-11-20T08:07:06;2.90;;;2.70;;
17564;SDS011;62994;52.126;5.596;2022-11-20T08:09:35;2.30;;;2.20;;
17564;SDS011;62994;52.126;5.596;2022-11-20T08:12:04;2.60;;;2.50;;
17564;SDS011;62994;52.126;5.596;2022-11-20T08:14:49;2.57;;;2.37;;
17564;SDS011;62994;52.126;5.596;2022-11-20T08:17:16;2.23;;;2.13;;
17564;SDS011;62994;52.126;5.596;2022-11-20T08:19:50;2.67;;;2.57;;
17564;SDS011;62994;52.126;5.596;2022-11-20T08:22:20;2.30;;;2.10;;
17564;SDS011;62994;52.126;5.596;2022-11-20T08:24:47;2.70;;;2.50;;
17564;SDS011;62994;52.126;5.596;2022-11-20T08:27:15;2.53;;;2.33;;
17564;SDS011;62994;52.126;5.596;2022-11-20T08:29:42;2.90;;;2.70;;
17564;SDS011;62994;52.126;5.596;2022-11-20T08:32:10;3.07;;;2.87;;
17564;SDS011;62994;52.126;5.596;2022-11-20T08:34:42;2.53;;;2.40;;
17564;SDS011;62994;52.126;5.596;2022-11-20T08:37:13;2.40;;;2.30;;
17564;SDS011;62994;52.126;5.596;2022-11-20T08:39:46;2.80;;;2.60;;
17564;SDS011;62994;52.126;5.596;2022-11-20T08:42:17;2.70;;;2.50;;
17564;SDS011;62994;52.126;5.596;2022-11-20T08:44:49;2.30;;;2.20;;
17564;SDS011;62994;52.126;5.596;2022-11-20T08:47:16;2.30;;;2.20;;
17564;SDS011;62994;52.126;5.596;2022-11-20T08:49:46;2.10;;;2.00;;
17564;SDS011;62994;52.126;5.596;2022-11-20T08:52:13;2.00;;;1.90;;
17564;SDS011;62994;52.126;5.596;2022-11-20T08:54:40;2.37;;;2.27;;
17564;SDS011;62994;52.126;5.596;2022-11-20T08:57:11;2.20;;;2.10;;
17564;SDS011;62994;52.126;5.596;2022-11-20T08:59:42;2.10;;;2.00;;
17564;SDS011;62994;52.126;5.596;2022-11-20T09:02:11;2.30;;;2.20;;
17564;SDS011;62994;52.126;5.596;2022-11-20T09:04:44;2.43;;;2.33;;
17564;SDS011;62994;52.126;5.596;2022-11-20T09:07:19;2.40;;;2.30;;
17564;SDS011;62994;52.126;5.596;2022-11-20T09:09:55;1.87;;;1.77;;
17564;SDS011;62994;52.126;5.596;2022-11-20T09:12:24;2.40;;;2.30;;
17564;SDS011;62994;52.126;5.596;2022-11-20T09:14:56;2.07;;;1.97;;
17564;SDS011;62994;52.126;5.596;2022-11-20T09:17:25;2.50;;;2.40;;
17564;SDS011;62994;52.126;5.596;2022-11-20T09:19:52;2.50;;;2.30;;
17564;SDS011;62994;52.126;5.596;2022-11-20T09:22:32;2.23;;;2.13;;
17564;SDS011;62994;52.126;5.596;2022-11-20T09:25:13;2.40;;;2.30;;
17564;SDS011;62994;52.126;5.596;2022-11-20T09:27:47;2.20;;;2.10;;
17564;SDS011;62994;52.126;5.596;2022-11-20T09:30:28;2.40;;;2.30;;
17564;SDS011;62994;52.126;5.596;2022-11-20T09:33:03;2.23;;;2.13;;
17564;SDS011;62994;52.126;5.596;2022-11-20T09:35:34;2.43;;;2.33;;
17564;SDS011;62994;52.126;5.596;2022-11-20T09:38:05;2.57;;;2.40;;
17564;SDS011;62994;52.126;5.596;2022-11-20T09:40:36;2.57;;;2.40;;
17564;SDS011;62994;52.126;5.596;2022-11-20T09:43:10;2.30;;;2.20;;
17564;SDS011;62994;52.126;5.596;2022-11-20T09:48:52;2.33;;;2.13;;
17564;SDS011;62994;52.126;5.596;2022-11-20T09:51:37;2.27;;;2.17;;
17564;SDS011;62994;52.126;5.596;2022-11-20T09:54:16;2.27;;;2.17;;
17564;SDS011;62994;52.126;5.596;2022-11-20T09:56:50;1.97;;;1.87;;
17564;SDS011;62994;52.126;5.596;2022-11-20T09:59:34;2.00;;;1.87;;
17564;SDS011;62994;52.126;5.596;2022-11-20T10:02:12;1.47;;;1.37;;
17564;SDS011;62994;52.126;5.596;2022-11-20T10:04:51;1.70;;;1.60;;
17564;SDS011;62994;52.126;5.596;2022-11-20T10:07:27;1.70;;;1.60;;
17564;SDS011;62994;52.126;5.596;2022-11-20T10:10:13;2.00;;;1.90;;
17564;SDS011;62994;52.126;5.596;2022-11-20T10:12:50;2.50;;;2.30;;
17564;SDS011;62994;52.126;5.596;2022-11-20T10:15:28;1.90;;;1.80;;
17564;SDS011;62994;52.126;5.596;2022-11-20T10:18:17;1.80;;;1.70;;
17564;SDS011;62994;52.126;5.596;2022-11-20T10:26:57;2.70;;;1.80;;
17564;SDS011;62994;52.126;5.596;2022-11-20T10:29:32;2.00;;;1.90;;
17564;SDS011;62994;52.126;5.596;2022-11-20T10:32:01;2.13;;;1.97;;
17564;SDS011;62994;52.126;5.596;2022-11-20T10:37:31;3.97;;;2.17;;
17564;SDS011;62994;52.126;5.596;2022-11-20T10:40:14;2.10;;;2.00;;
17564;SDS011;62994;52.126;5.596;2022-11-20T10:43:09;2.00;;;1.90;;
17564;SDS011;62994;52.126;5.596;2022-11-20T10:45:53;2.70;;;2.20;;
17564;SDS011;62994;52.126;5.596;2022-11-20T10:48:53;2.30;;;2.10;;
17564;SDS011;62994;52.126;5.596;2022-11-20T10:51:35;2.10;;;2.00;;
17564;SDS011;62994;52.126;5.596;2022-11-20T10:55:01;2.77;;;2.10;;
17564;SDS011;62994;52.126;5.596;2022-11-20T10:57:49;1.77;;;1.67;;
17564;SDS011;62994;52.126;5.596;2022-11-20T11:00:24;2.20;;;2.10;;
17564;SDS011;62994;52.126;5.596;2022-11-20T11:03:10;2.10;;;2.00;;
17564;SDS011;62994;52.126;5.596;2022-11-20T11:05:54;2.40;;;2.20;;
17564;SDS011;62994;52.126;5.596;2022-11-20T11:08:49;2.43;;;2.13;;
17564;SDS011;62994;52.126;5.596;2022-11-20T11:11:44;1.93;;;1.83;;
17564;SDS011;62994;52.126;5.596;2022-11-20T11:17:33;2.80;;;2.30;;
17564;SDS011;62994;52.126;5.596;2022-11-20T11:20:04;3.40;;;2.87;;
17564;SDS011;62994;52.126;5.596;2022-11-20T11:22:42;2.50;;;2.30;;
17564;SDS011;62994;52.126;5.596;2022-11-20T11:28:02;3.00;;;2.57;;
17564;SDS011;62994;52.126;5.596;2022-11-20T11:30:42;2.57;;;2.37;;
17564;SDS011;62994;52.126;5.596;2022-11-20T11:33:11;2.40;;;2.27;;
17564;SDS011;62994;52.126;5.596;2022-11-20T11:35:47;2.57;;;2.37;;
17564;SDS011;62994;52.126;5.596;2022-11-20T11:38:19;2.90;;;2.70;;
17564;SDS011;62994;52.126;5.596;2022-11-20T11:41:16;3.07;;;2.87;;
17564;SDS011;62994;52.126;5.596;2022-11-20T11:43:56;2.97;;;2.77;;
17564;SDS011;62994;52.126;5.596;2022-11-20T11:46:59;3.30;;;3.10;;
17564;SDS011;62994;52.126;5.596;2022-11-20T11:49:26;3.77;;;3.47;;
17564;SDS011;62994;52.126;5.596;2022-11-20T11:52:10;4.27;;;3.90;;
17564;SDS011;62994;52.126;5.596;2022-11-20T11:54:45;3.93;;;3.57;;
17564;SDS011;62994;52.126;5.596;2022-11-20T11:57:29;5.97;;;3.70;;
17564;SDS011;62994;52.126;5.596;2022-11-20T12:00:17;3.63;;;3.43;;
17564;SDS011;62994;52.126;5.596;2022-11-20T12:02:52;3.93;;;3.63;;
17564;SDS011;62994;52.126;5.596;2022-11-20T12:05:36;4.20;;;3.50;;
17564;SDS011;62994;52.126;5.596;2022-11-20T12:08:18;6.43;;;3.53;;
17564;SDS011;62994;52.126;5.596;2022-11-20T12:10:58;3.60;;;3.40;;
17564;SDS011;62994;52.126;5.596;2022-11-20T12:13:43;3.27;;;3.03;;
17564;SDS011;62994;52.126;5.596;2022-11-20T12:16:20;4.57;;;4.20;;
17564;SDS011;62994;52.126;5.596;2022-11-20T12:18:51;4.63;;;4.23;;
17564;SDS011;62994;52.126;5.596;2022-11-20T12:21:31;3.57;;;3.27;;
17564;SDS011;62994;52.126;5.596;2022-11-20T12:24:12;4.23;;;3.93;;
17564;SDS011;62994;52.126;5.596;2022-11-20T12:27:08;4.40;;;4.10;;
17564;SDS011;62994;52.126;5.596;2022-11-20T12:30:18;4.47;;;4.10;;
17564;SDS011;62994;52.126;5.596;2022-11-20T12:33:16;4.70;;;4.30;;
17564;SDS011;62994;52.126;5.596;2022-11-20T12:36:19;3.87;;;3.57;;
17564;SDS011;62994;52.126;5.596;2022-11-20T12:39:14;4.37;;;4.07;;
17564;SDS011;62994;52.126;5.596;2022-11-20T12:42:11;4.80;;;4.50;;
17564;SDS011;62994;52.126;5.596;2022-11-20T12:51:41;4.67;;;4.27;;
17564;SDS011;62994;52.126;5.596;2022-11-20T12:56:23;5.60;;;5.20;;
17564;SDS011;62994;52.126;5.596;2022-11-20T12:57:57;5.40;;;5.00;;
17564;SDS011;62994;52.126;5.596;2022-11-20T13:00:31;5.33;;;4.80;;
17564;SDS011;62994;52.126;5.596;2022-11-20T13:06:12;5.60;;;5.10;;
17564;SDS011;62994;52.126;5.596;2022-11-20T13:08:48;6.00;;;5.50;;
17564;SDS011;62994;52.126;5.596;2022-11-20T13:11:31;6.43;;;5.93;;
17564;SDS011;62994;52.126;5.596;2022-11-20T13:14:10;6.47;;;5.87;;
17564;SDS011;62994;52.126;5.596;2022-11-20T13:16:48;5.87;;;5.37;;
17564;SDS011;62994;52.126;5.596;2022-11-20T13:19:18;6.03;;;5.57;;
17564;SDS011;62994;52.126;5.596;2022-11-20T13:21:53;6.27;;;5.67;;
17564;SDS011;62994;52.126;5.596;2022-11-20T13:24:35;6.07;;;5.57;;
17564;SDS011;62994;52.126;5.596;2022-11-20T13:27:17;6.57;;;5.97;;
17564;SDS011;62994;52.126;5.596;2022-11-20T13:30:03;6.23;;;5.47;;
17564;SDS011;62994;52.126;5.596;2022-11-20T13:32:47;6.20;;;5.70;;
17564;SDS011;62994;52.126;5.596;2022-11-20T13:35:29;5.87;;;5.37;;
17564;SDS011;62994;52.126;5.596;2022-11-20T13:38:08;6.23;;;5.63;;
17564;SDS011;62994;52.126;5.596;2022-11-20T13:40:52;6.47;;;5.97;;
17564;SDS011;62994;52.126;5.596;2022-11-20T13:43:46;6.30;;;5.70;;
17564;SDS011;62994;52.126;5.596;2022-11-20T13:46:17;6.50;;;5.90;;
17564;SDS011;62994;52.126;5.596;2022-11-20T13:48:51;6.00;;;5.60;;
17564;SDS011;62994;52.126;5.596;2022-11-20T13:51:51;5.60;;;5.20;;
17564;SDS011;62994;52.126;5.596;2022-11-20T14:00:57;6.73;;;6.13;;
17564;SDS011;62994;52.126;5.596;2022-11-20T14:03:35;6.97;;;6.27;;
17564;SDS011;62994;52.126;5.596;2022-11-20T14:06:25;6.57;;;6.03;;
17564;SDS011;62994;52.126;5.596;2022-11-20T14:08:59;6.37;;;5.87;;
17564;SDS011;62994;52.126;5.596;2022-11-20T14:11:33;6.30;;;5.90;;
17564;SDS011;62994;52.126;5.596;2022-11-20T14:14:03;6.30;;;5.80;;
17564;SDS011;62994;52.126;5.596;2022-11-20T14:16:41;6.43;;;5.93;;
17564;SDS011;62994;52.126;5.596;2022-11-20T14:19:28;6.03;;;5.53;;
17564;SDS011;62994;52.126;5.596;2022-11-20T14:22:37;6.17;;;5.67;;
17564;SDS011;62994;52.126;5.596;2022-11-20T14:25:29;5.90;;;5.40;;
17564;SDS011;62994;52.126;5.596;2022-11-20T14:28:01;6.57;;;5.90;;
17564;SDS011;62994;52.126;5.596;2022-11-20T14:30:39;6.00;;;5.50;;
17564;SDS011;62994;52.126;5.596;2022-11-20T14:33:28;5.87;;;5.47;;
17564;SDS011;62994;52.126;5.596;2022-11-20T14:36:04;6.47;;;5.97;;
17564;SDS011;62994;52.126;5.596;2022-11-20T14:38:46;6.47;;;5.97;;
17564;SDS011;62994;52.126;5.596;2022-11-20T14:41:24;5.83;;;5.43;;
17564;SDS011;62994;52.126;5.596;2022-11-20T14:47:38;5.40;;;5.00;;
17564;SDS011;62994;52.126;5.596;2022-11-20T14:50:12;5.90;;;5.40;;
17564;SDS011;62994;52.126;5.596;2022-11-20T14:52:50;6.47;;;5.97;;
17564;SDS011;62994;52.126;5.596;2022-11-20T14:55:36;6.40;;;5.90;;
17564;SDS011;62994;52.126;5.596;2022-11-20T14:58:21;6.03;;;5.63;;
17564;SDS011;62994;52.126;5.596;2022-11-20T15:00:56;7.00;;;6.40;;
17564;SDS011;62994;52.126;5.596;2022-11-20T15:03:41;5.83;;;5.43;;
17564;SDS011;62994;52.126;5.596;2022-11-20T15:06:25;6.03;;;5.63;;
17564;SDS011;62994;52.126;5.596;2022-11-20T15:09:02;6.40;;;5.90;;
17564;SDS011;62994;52.126;5.596;2022-11-20T15:11:50;6.00;;;5.60;;
17564;SDS011;62994;52.126;5.596;2022-11-20T15:14:30;6.07;;;5.60;;
17564;SDS011;62994;52.126;5.596;2022-11-20T15:17:32;6.07;;;5.57;;
17564;SDS011;62994;52.126;5.596;2022-11-20T15:23:16;5.87;;;5.40;;
17564;SDS011;62994;52.126;5.596;2022-11-20T15:25:58;7.67;;;5.67;;
17564;SDS011;62994;52.126;5.596;2022-11-20T15:29:00;5.63;;;5.23;;
17564;SDS011;62994;52.126;5.596;2022-11-20T15:31:28;5.83;;;5.33;;
17564;SDS011;62994;52.126;5.596;2022-11-20T15:34:13;6.10;;;5.60;;
17564;SDS011;62994;52.126;5.596;2022-11-20T15:36:44;5.97;;;5.57;;
17564;SDS011;62994;52.126;5.596;2022-11-20T15:39:20;6.47;;;6.03;;
17564;SDS011;62994;52.126;5.596;2022-11-20T15:41:51;5.87;;;5.37;;
17564;SDS011;62994;52.126;5.596;2022-11-20T15:44:30;6.00;;;5.60;;
17564;SDS011;62994;52.126;5.596;2022-11-20T15:47:11;5.80;;;5.30;;
17564;SDS011;62994;52.126;5.596;2022-11-20T15:50:00;6.50;;;6.00;;
17564;SDS011;62994;52.126;5.596;2022-11-20T15:52:33;6.33;;;5.83;;
17564;SDS011;62994;52.126;5.596;2022-11-20T15:55:07;5.87;;;5.47;;
17564;SDS011;62994;52.126;5.596;2022-11-20T15:57:47;6.20;;;5.70;;
17564;SDS011;62994;52.126;5.596;2022-11-20T16:00:32;6.17;;;5.67;;
17564;SDS011;62994;52.126;5.596;2022-11-20T16:03:02;5.47;;;5.07;;
17564;SDS011;62994;52.126;5.596;2022-11-20T16:05:34;6.55;;;6.15;;
17564;SDS011;62994;52.126;5.596;2022-11-20T16:08:03;5.67;;;5.27;;
17564;SDS011;62994;52.126;5.596;2022-11-20T16:10:32;6.10;;;5.60;;
17564;SDS011;62994;52.126;5.596;2022-11-20T16:13:10;6.87;;;6.27;;
17564;SDS011;62994;52.126;5.596;2022-11-20T16:16:01;6.17;;;5.60;;
17564;SDS011;62994;52.126;5.596;2022-11-20T16:18:33;6.03;;;5.63;;